Time;durP1;ratioP1;P1;durP2;ratioP2;P2;SDS_P1;SDS_P2;PMS_P1;PMS_P2;Temp;Humidity;BMP_temperature;BMP_pressure;BME280_temperature;BME280_humidity;BME280_pressure;Samples;Min_cycle;Max_cycle;Signal;HPM_P1;HPM_P2
2021/01/24 00:00:46;;;;;;;2.20;2.00;;;5.20;99.90;;;;;;6227292;28;20478;-59
2021/01/24 00:03:49;;;;;;;2.50;2.30;;;5.30;99.90;;;;;;6227348;28;20482;-58
2021/01/24 00:06:51;;;;;;;3.10;2.80;;;5.30;99.90;;;;;;6224262;28;20810;-59
2021/01/24 00:09:53;;;;;;;2.47;2.27;;;5.30;99.90;;;;;;6227118;28;20476;-59
2021/01/24 00:12:57;;;;;;;2.10;2.00;;;5.30;99.90;;;;;;6222943;28;20494;-56
2021/01/24 00:15:59;;;;;;;2.17;2.07;;;5.20;99.90;;;;;;6226840;28;20480;-58
2021/01/24 00:19:01;;;;;;;4.10;1.97;;;5.30;99.90;;;;;;6226760;28;20468;-60
2021/01/24 00:22:03;;;;;;;2.03;1.93;;;5.10;99.90;;;;;;6226908;28;20468;-59
2021/01/24 00:25:07;;;;;;;2.33;2.10;;;5.10;99.90;;;;;;6226358;28;20602;-58
2021/01/24 00:28:10;;;;;;;3.30;2.17;;;5.10;99.90;;;;;;6226424;28;20571;-59
2021/01/24 00:31:13;;;;;;;2.33;2.13;;;5.10;99.90;;;;;;6226920;28;20456;-59
2021/01/24 00:34:15;;;;;;;2.50;1.87;;;5.00;99.90;;;;;;6226338;28;20539;-60
2021/01/24 00:37:17;;;;;;;1.80;1.70;;;5.00;99.90;;;;;;6226646;28;20554;-59
2021/01/24 00:40:20;;;;;;;1.80;1.70;;;5.00;99.90;;;;;;6226363;28;20888;-59
2021/01/24 00:43:23;;;;;;;2.43;2.23;;;5.00;99.90;;;;;;6226719;28;20459;-58
2021/01/24 00:46:25;;;;;;;2.13;1.80;;;5.00;99.90;;;;;;6226288;28;20448;-59
2021/01/24 00:49:28;;;;;;;1.60;1.50;;;5.10;99.90;;;;;;6226472;28;20472;-58
2021/01/24 00:52:30;;;;;;;1.93;1.83;;;5.10;99.90;;;;;;6226146;28;20923;-58
2021/01/24 00:55:33;;;;;;;1.80;1.70;;;5.20;99.90;;;;;;6226253;28;20468;-59
2021/01/24 00:58:36;;;;;;;1.93;1.83;;;5.30;99.90;;;;;;6226181;28;20482;-59
2021/01/24 01:01:40;;;;;;;2.00;1.80;;;5.30;99.90;;;;;;6226329;28;20797;-60
2021/01/24 01:04:45;;;;;;;2.07;1.97;;;5.40;99.90;;;;;;6226083;28;20464;-60
2021/01/24 01:07:47;;;;;;;2.10;1.90;;;5.30;99.90;;;;;;6219459;28;20483;-59
2021/01/24 01:10:49;;;;;;;2.23;1.93;;;5.30;99.90;;;;;;6226080;28;20474;-59
2021/01/24 01:13:52;;;;;;;1.90;1.80;;;5.30;99.90;;;;;;6225882;28;20786;-58
2021/01/24 01:16:55;;;;;;;2.20;2.00;;;5.30;99.90;;;;;;6225797;28;20472;-59
2021/01/24 01:19:57;;;;;;;1.80;1.70;;;5.30;99.90;;;;;;6205634;28;20501;-59
2021/01/24 01:22:59;;;;;;;2.60;2.40;;;5.30;99.90;;;;;;6200978;28;21000;-60
2021/01/24 01:26:01;;;;;;;1.70;1.60;;;5.30;99.90;;;;;;6201078;28;20481;-60
2021/01/24 01:29:04;;;;;;;2.33;2.13;;;5.30;99.90;;;;;;6200953;28;20473;-58
2021/01/24 01:32:09;;;;;;;2.23;2.10;;;5.30;99.90;;;;;;6209540;28;20483;-57
2021/01/24 01:35:12;;;;;;;1.83;1.73;;;5.30;99.90;;;;;;6221868;28;20475;-56
2021/01/24 01:38:14;;;;;;;1.83;1.73;;;5.30;99.90;;;;;;6212613;28;20488;-57
2021/01/24 01:41:16;;;;;;;2.10;2.00;;;5.40;99.90;;;;;;6191071;28;21167;-58
2021/01/24 01:44:19;;;;;;;2.90;2.60;;;5.40;99.90;;;;;;6184984;28;20484;-58
2021/01/24 01:47:23;;;;;;;5.60;5.20;;;5.40;99.90;;;;;;6186456;28;20469;-58
2021/01/24 01:50:26;;;;;;;4.40;4.03;;;5.40;99.90;;;;;;6188824;28;20476;-57
2021/01/24 01:53:29;;;;;;;3.10;2.90;;;5.40;99.90;;;;;;6187255;28;20998;-58
2021/01/24 01:56:31;;;;;;;2.40;2.20;;;5.40;99.90;;;;;;6189119;28;20469;-60
2021/01/24 01:59:35;;;;;;;3.80;2.80;;;5.50;99.90;;;;;;6190294;28;20799;-56
2021/01/24 02:02:53;;;;;;;2.10;2.00;;;5.40;99.90;;;;;;6176766;28;20489;-59
2021/01/24 02:06:04;;;;;;;2.70;2.50;;;5.50;99.90;;;;;;6177406;28;20471;-58
2021/01/24 02:09:10;;;;;;;1.87;1.77;;;5.50;99.90;;;;;;6176533;28;20482;-58
2021/01/24 02:12:19;;;;;;;3.07;2.87;;;5.50;99.90;;;;;;6176725;28;20474;-58
2021/01/24 02:15:27;;;;;;;2.70;2.03;;;5.50;99.90;;;;;;6176472;28;20470;-58
2021/01/24 02:18:33;;;;;;;2.20;2.10;;;5.50;99.90;;;;;;6176767;28;20470;-58
2021/01/24 02:21:40;;;;;;;3.80;2.60;;;5.50;99.90;;;;;;6176475;28;20968;-58
2021/01/24 02:24:49;;;;;;;2.90;2.70;;;5.40;99.90;;;;;;6176529;28;21008;-58
2021/01/24 02:27:59;;;;;;;2.63;2.43;;;5.40;99.90;;;;;;6176421;28;20488;-58
2021/01/24 02:31:04;;;;;;;3.40;3.10;;;5.40;99.90;;;;;;6176836;28;20818;-57
2021/01/24 02:34:09;;;;;;;4.10;3.40;;;5.20;99.90;;;;;;6176553;28;20476;-58
2021/01/24 02:37:12;;;;;;;4.27;3.00;;;5.20;99.90;;;;;;6178027;28;20973;-58
2021/01/24 02:40:15;;;;;;;3.73;3.50;;;5.20;99.90;;;;;;6200952;28;20525;-58
2021/01/24 02:43:18;;;;;;;6.13;4.37;;;5.20;99.90;;;;;;6200741;28;20498;-58
2021/01/24 02:46:22;;;;;;;3.50;3.20;;;5.10;99.90;;;;;;6200250;28;20774;-58
2021/01/24 02:49:28;;;;;;;4.83;3.60;;;5.10;99.90;;;;;;6200451;28;20461;-58
2021/01/24 02:52:31;;;;;;;4.20;3.80;;;5.10;99.90;;;;;;6200292;28;20436;-58
2021/01/24 02:55:33;;;;;;;4.00;3.70;;;5.20;99.90;;;;;;6200381;28;20473;-58
2021/01/24 02:58:36;;;;;;;3.80;3.50;;;5.20;99.90;;;;;;6200527;28;20492;-59
2021/01/24 03:01:41;;;;;;;4.20;3.90;;;5.30;99.90;;;;;;6200414;28;20477;-59
2021/01/24 03:04:43;;;;;;;4.37;4.00;;;5.20;99.90;;;;;;6200116;28;20918;-58
2021/01/24 03:07:46;;;;;;;3.33;3.13;;;5.20;99.90;;;;;;6200720;28;20473;-58
2021/01/24 03:10:49;;;;;;;2.80;2.60;;;5.20;99.90;;;;;;6201243;28;20469;-59
2021/01/24 03:13:59;;;;;;;3.40;3.20;;;5.10;99.90;;;;;;6204258;28;20493;-58
2021/01/24 03:17:04;;;;;;;4.80;4.30;;;5.10;99.90;;;;;;6204463;28;20469;-58
2021/01/24 03:20:08;;;;;;;5.27;4.77;;;5.10;99.90;;;;;;6204294;28;20994;-58
2021/01/24 03:23:12;;;;;;;5.30;4.33;;;5.00;99.90;;;;;;6196135;28;20475;-58
2021/01/24 03:26:14;;;;;;;6.57;5.97;;;5.00;99.90;;;;;;6204356;28;20480;-59
2021/01/24 03:29:17;;;;;;;6.73;6.20;;;4.90;99.90;;;;;;6203947;28;20890;-61
2021/01/24 03:32:20;;;;;;;7.90;7.10;;;4.90;99.90;;;;;;6204010;28;20992;-59
2021/01/24 03:35:23;;;;;;;7.13;6.47;;;4.80;99.90;;;;;;6204211;28;20472;-61
2021/01/24 03:38:25;;;;;;;7.13;6.50;;;4.70;99.90;;;;;;6203844;28;20469;-60
2021/01/24 03:41:27;;;;;;;8.20;7.37;;;4.60;99.90;;;;;;6203873;28;20480;-61
2021/01/24 03:44:29;;;;;;;8.63;7.60;;;4.60;99.90;;;;;;6203903;28;21003;-61
2021/01/24 03:47:32;;;;;;;7.63;6.90;;;4.50;99.90;;;;;;6204016;28;20487;-60
2021/01/24 03:50:34;;;;;;;7.80;7.00;;;4.50;99.90;;;;;;6203944;28;20555;-60
2021/01/24 03:53:39;;;;;;;9.53;7.90;;;4.50;99.90;;;;;;6203763;28;20551;-59
2021/01/24 03:56:41;;;;;;;9.23;8.33;;;4.60;99.90;;;;;;6203252;28;20817;-58
2021/01/24 03:59:49;;;;;;;9.80;8.90;;;4.60;99.90;;;;;;6203405;28;20477;-58
2021/01/24 04:02:52;;;;;;;9.47;8.47;;;4.60;99.90;;;;;;6203491;28;20469;-58
2021/01/24 04:05:55;;;;;;;8.83;7.93;;;4.60;99.90;;;;;;6203514;28;20961;-58
2021/01/24 04:08:57;;;;;;;11.07;9.13;;;4.60;99.90;;;;;;6202843;28;20495;-59
2021/01/24 04:11:59;;;;;;;11.03;9.80;;;4.60;99.90;;;;;;6203306;28;20972;-59
2021/01/24 04:15:02;;;;;;;10.50;9.23;;;4.60;99.90;;;;;;6203031;28;20488;-60
2021/01/24 04:18:06;;;;;;;12.63;9.50;;;4.60;99.90;;;;;;6202566;28;20913;-59
2021/01/24 04:21:09;;;;;;;12.47;9.30;;;4.60;99.90;;;;;;6203143;28;20469;-59
2021/01/24 04:24:13;;;;;;;12.90;9.87;;;4.60;99.90;;;;;;6203458;28;20513;-60
2021/01/24 04:27:16;;;;;;;10.83;9.73;;;4.60;99.90;;;;;;6197867;28;20818;-59
2021/01/24 04:30:20;;;;;;;11.37;9.57;;;4.60;99.90;;;;;;6202950;28;20608;-58
2021/01/24 04:33:23;;;;;;;11.30;9.03;;;4.60;99.90;;;;;;6202525;28;20831;-57
2021/01/24 04:36:25;;;;;;;9.57;8.57;;;4.60;99.90;;;;;;6202662;28;20489;-59
2021/01/24 04:39:28;;;;;;;9.33;8.33;;;4.70;99.90;;;;;;6201866;28;20582;-59
2021/01/24 04:42:30;;;;;;;10.97;9.63;;;4.60;99.90;;;;;;6202666;28;20477;-57
2021/01/24 04:45:35;;;;;;;11.63;10.20;;;4.60;99.90;;;;;;6202446;28;20469;-59
2021/01/24 04:48:39;;;;;;;13.80;11.17;;;4.60;99.90;;;;;;6202305;28;20816;-58
2021/01/24 04:51:42;;;;;;;12.20;10.97;;;4.50;99.90;;;;;;6202589;28;20485;-58
2021/01/24 04:54:45;;;;;;;11.70;10.10;;;4.60;99.90;;;;;;6202109;28;20473;-58
2021/01/24 04:57:47;;;;;;;13.27;11.10;;;4.50;99.90;;;;;;6202132;28;20862;-58
2021/01/24 05:00:49;;;;;;;10.80;9.70;;;4.50;99.90;;;;;;6202426;28;20469;-59
2021/01/24 05:03:52;;;;;;;11.20;10.13;;;4.50;99.90;;;;;;6202156;28;20826;-60
2021/01/24 05:06:54;;;;;;;9.77;8.43;;;4.50;99.90;;;;;;6202071;28;20472;-60
2021/01/24 05:09:58;;;;;;;11.50;10.30;;;4.50;99.90;;;;;;6201624;28;20481;-59
2021/01/24 05:13:00;;;;;;;12.47;10.03;;;4.60;99.90;;;;;;6201839;28;20551;-59
2021/01/24 05:16:04;;;;;;;10.73;9.63;;;4.60;99.90;;;;;;6201371;28;20488;-58
2021/01/24 05:19:08;;;;;;;9.93;9.03;;;4.70;99.90;;;;;;6201623;28;20477;-58
2021/01/24 05:22:11;;;;;;;12.57;10.50;;;4.80;99.90;;;;;;6201499;28;20781;-58
2021/01/24 05:25:17;;;;;;;12.87;10.40;;;4.80;99.90;;;;;;6201293;28;20465;-59
2021/01/24 05:28:21;;;;;;;11.77;10.57;;;4.90;99.90;;;;;;6201244;28;20948;-58
2021/01/24 05:31:23;;;;;;;9.93;8.97;;;4.80;99.90;;;;;;6197063;28;20471;-58
2021/01/24 05:34:28;;;;;;;10.70;9.60;;;4.80;99.90;;;;;;6200556;28;20448;-58
2021/01/24 05:37:37;;;;;;;8.53;7.73;;;4.90;99.90;;;;;;6200645;28;20817;-59
2021/01/24 05:40:41;;;;;;;10.00;9.00;;;5.00;99.90;;;;;;6201340;28;20477;-59
2021/01/24 05:43:44;;;;;;;9.17;8.27;;;5.00;99.90;;;;;;6201542;28;20465;-60
2021/01/24 05:46:50;;;;;;;9.60;8.10;;;5.10;99.90;;;;;;6201227;28;20931;-58
2021/01/24 05:49:53;;;;;;;9.03;7.27;;;5.00;99.90;;;;;;6201220;28;20477;-59
2021/01/24 05:52:55;;;;;;;9.63;8.60;;;5.00;99.90;;;;;;6201310;28;20484;-59
2021/01/24 05:55:58;;;;;;;9.60;8.60;;;5.00;99.90;;;;;;6200799;28;20813;-59
2021/01/24 05:59:03;;;;;;;9.13;8.20;;;5.10;99.90;;;;;;6201387;28;20559;-59
2021/01/24 06:02:06;;;;;;;10.57;8.90;;;5.10;99.90;;;;;;6201039;28;20483;-59
2021/01/24 06:05:10;;;;;;;10.57;9.57;;;5.10;99.90;;;;;;6200921;28;20477;-59
2021/01/24 06:08:15;;;;;;;9.73;8.70;;;5.20;99.90;;;;;;6200852;28;20476;-59
2021/01/24 06:11:18;;;;;;;10.30;9.33;;;5.10;99.90;;;;;;6201069;28;20476;-59
2021/01/24 06:14:20;;;;;;;11.23;9.70;;;5.10;99.90;;;;;;6200918;28;20477;-59
2021/01/24 06:17:29;;;;;;;9.67;8.77;;;5.00;99.90;;;;;;6200940;28;20469;-59
2021/01/24 06:20:46;;;;;;;9.07;8.17;;;5.00;99.90;;;;;;6200677;28;21052;-59
2021/01/24 06:23:56;;;;;;;9.90;8.73;;;4.90;99.90;;;;;;6200739;28;20466;-58
2021/01/24 06:27:00;;;;;;;10.90;9.80;;;4.90;99.90;;;;;;6201385;28;20457;-58
2021/01/24 06:30:07;;;;;;;10.40;9.40;;;4.90;99.90;;;;;;6200646;28;20469;-58
2021/01/24 06:33:13;;;;;;;10.43;9.37;;;4.80;99.90;;;;;;6200972;28;20496;-58
2021/01/24 06:36:16;;;;;;;10.63;9.53;;;4.80;99.90;;;;;;6196244;28;20485;-58
2021/01/24 06:39:28;;;;;;;11.90;10.03;;;4.70;99.90;;;;;;6199972;28;20858;-58
2021/01/24 06:42:38;;;;;;;12.53;11.33;;;4.60;99.90;;;;;;6201036;28;20965;-58
2021/01/24 06:45:42;;;;;;;9.80;8.90;;;4.60;99.90;;;;;;6202754;28;20499;-59
2021/01/24 06:48:47;;;;;;;13.63;10.33;;;4.60;99.90;;;;;;6204861;28;20973;-58
2021/01/24 06:51:50;;;;;;;10.33;8.50;;;4.60;99.90;;;;;;6204862;28;20480;-59
2021/01/24 06:54:53;;;;;;;10.67;9.27;;;4.70;99.90;;;;;;6204791;28;20488;-57
2021/01/24 06:57:55;;;;;;;9.60;8.60;;;4.80;99.90;;;;;;6204392;28;20480;-59
2021/01/24 07:01:25;;;;;;;9.67;8.73;;;4.80;99.90;;;;;;6205097;28;20481;-58
2021/01/24 07:04:31;;;;;;;10.00;9.00;;;4.80;99.90;;;;;;6205414;28;20449;-59
2021/01/24 07:07:36;;;;;;;9.87;8.87;;;4.80;99.90;;;;;;6204862;28;20452;-58
2021/01/24 07:10:43;;;;;;;9.60;8.63;;;4.90;99.90;;;;;;6205075;28;20463;-58
2021/01/24 07:13:45;;;;;;;12.03;10.03;;;4.90;99.90;;;;;;6204778;28;20540;-59
2021/01/24 07:16:48;;;;;;;11.67;9.00;;;5.00;99.90;;;;;;6203916;28;20475;-59
2021/01/24 07:19:52;;;;;;;12.00;9.97;;;5.00;99.90;;;;;;6204568;28;20864;-58
2021/01/24 07:22:55;;;;;;;14.80;11.30;;;5.10;99.90;;;;;;6205069;28;20472;-58
2021/01/24 07:25:58;;;;;;;10.53;9.53;;;5.30;99.90;;;;;;6204265;28;20473;-59
2021/01/24 07:29:01;;;;;;;10.83;9.73;;;5.60;99.90;;;;;;6204025;28;20468;-58
2021/01/24 07:32:08;;;;;;;12.87;10.87;;;5.70;99.90;;;;;;6203936;28;20481;-59
2021/01/24 07:35:12;;;;;;;13.83;11.90;;;5.60;99.90;;;;;;6203931;28;20473;-58
2021/01/24 07:38:16;;;;;;;13.20;10.73;;;5.70;99.90;;;;;;6198566;28;20956;-59
2021/01/24 07:41:20;;;;;;;12.47;10.83;;;5.80;99.90;;;;;;6203898;28;20496;-58
2021/01/24 07:44:22;;;;;;;13.50;10.73;;;5.90;99.90;;;;;;6204029;28;20487;-58
2021/01/24 07:47:24;;;;;;;12.60;10.90;;;6.00;99.90;;;;;;6203539;28;20469;-58
2021/01/24 07:50:29;;;;;;;14.20;11.30;;;6.00;99.90;;;;;;6203576;28;20961;-58
2021/01/24 07:53:33;;;;;;;17.07;12.90;;;6.10;99.90;;;;;;6203912;28;20487;-59
2021/01/24 07:56:35;;;;;;;17.17;11.80;;;6.10;99.90;;;;;;6202607;28;20824;-59
2021/01/24 07:59:38;;;;;;;15.10;11.27;;;6.10;99.90;;;;;;6203536;28;20480;-59
2021/01/24 08:02:41;;;;;;;15.27;12.93;;;6.10;99.90;;;;;;6203394;28;20600;-59
2021/01/24 08:05:43;;;;;;;14.20;11.40;;;6.10;99.90;;;;;;6203989;28;20473;-59
2021/01/24 08:08:48;;;;;;;12.30;10.03;;;6.00;99.90;;;;;;6203285;28;20977;-58
2021/01/24 08:11:50;;;;;;;13.67;11.60;;;6.10;99.90;;;;;;6203238;28;20489;-59
2021/01/24 08:14:53;;;;;;;11.73;10.50;;;6.20;99.90;;;;;;6203120;28;20813;-58
2021/01/24 08:17:58;;;;;;;11.03;9.97;;;6.20;99.90;;;;;;6202787;28;20987;-59
2021/01/24 08:21:02;;;;;;;10.50;9.40;;;6.30;99.90;;;;;;6202860;28;20801;-59
2021/01/24 08:24:07;;;;;;;10.83;9.10;;;6.30;99.90;;;;;;6202706;28;20469;-59
2021/01/24 08:27:11;;;;;;;10.63;8.00;;;6.40;99.90;;;;;;6202293;28;20926;-59
2021/01/24 08:30:15;;;;;;;8.93;8.03;;;6.50;99.90;;;;;;6212813;28;20492;-59
2021/01/24 08:33:19;;;;;;;10.20;9.20;;;6.50;99.90;;;;;;6219845;28;20476;-58
2021/01/24 08:36:22;;;;;;;8.10;7.07;;;6.60;99.90;;;;;;6218878;28;20471;-59
2021/01/24 08:39:25;;;;;;;9.87;8.20;;;6.90;99.90;;;;;;6213600;28;20464;-58
2021/01/24 08:42:43;;;;;;;12.83;11.27;;;7.00;99.90;;;;;;6212623;28;20468;-58
2021/01/24 08:45:48;;;;;;;11.20;10.10;;;7.00;99.90;;;;;;6211397;28;20468;-60
2021/01/24 08:49:02;;;;;;;9.57;8.67;;;7.10;99.90;;;;;;6225958;28;20491;-60
2021/01/24 08:52:04;;;;;;;8.23;7.47;;;7.50;99.90;;;;;;6225910;28;20476;-58
2021/01/24 08:55:09;;;;;;;10.30;8.80;;;7.50;99.90;;;;;;6226008;28;20483;-59
2021/01/24 08:58:23;;;;;;;9.60;8.60;;;7.50;99.90;;;;;;6222808;28;20473;-59
2021/01/24 09:01:26;;;;;;;10.90;9.00;;;7.60;99.90;;;;;;6213659;28;20582;-60
2021/01/24 09:04:29;;;;;;;8.57;7.73;;;7.70;99.90;;;;;;6212688;28;20794;-58
2021/01/24 09:07:39;;;;;;;10.43;8.63;;;7.70;99.90;;;;;;6212436;28;20775;-58
2021/01/24 09:10:46;;;;;;;7.40;6.70;;;7.70;99.90;;;;;;6211724;28;20551;-59
2021/01/24 09:13:49;;;;;;;8.27;6.43;;;7.80;99.90;;;;;;6212587;28;21025;-59
2021/01/24 09:17:02;;;;;;;9.63;7.17;;;7.80;99.90;;;;;;6211984;28;20480;-58
2021/01/24 09:20:05;;;;;;;8.10;7.40;;;7.90;99.90;;;;;;6211127;28;21064;-59
2021/01/24 09:23:08;;;;;;;7.90;7.10;;;8.00;99.90;;;;;;6215141;28;20490;-59
2021/01/24 09:26:11;;;;;;;6.67;5.70;;;8.10;99.90;;;;;;6208090;28;20785;-59
2021/01/24 09:29:14;;;;;;;6.33;5.73;;;8.00;99.90;;;;;;6221104;28;20596;-58
2021/01/24 09:32:16;;;;;;;8.20;5.97;;;7.80;99.90;;;;;;6223887;28;20480;-59
2021/01/24 09:35:19;;;;;;;6.10;5.60;;;7.50;99.90;;;;;;6223629;28;20499;-59
2021/01/24 09:38:21;;;;;;;6.83;5.80;;;7.40;99.90;;;;;;6223673;28;20476;-59
2021/01/24 09:41:24;;;;;;;7.70;7.00;;;7.40;99.90;;;;;;6223664;28;20464;-59
2021/01/24 09:44:26;;;;;;;8.63;7.83;;;7.40;99.90;;;;;;6223979;28;20487;-60
2021/01/24 09:47:29;;;;;;;8.47;7.67;;;7.50;99.90;;;;;;6200634;28;20468;-60
2021/01/24 09:50:31;;;;;;;9.27;8.30;;;7.50;99.90;;;;;;6209357;28;20577;-59
2021/01/24 09:53:36;;;;;;;8.70;7.90;;;7.60;99.90;;;;;;6209722;28;20472;-58
2021/01/24 09:56:39;;;;;;;9.47;8.57;;;7.80;99.90;;;;;;6208868;28;20477;-58
2021/01/24 09:59:41;;;;;;;9.67;7.50;;;7.80;99.90;;;;;;6213594;28;20476;-59
2021/01/24 10:02:44;;;;;;;7.70;7.00;;;8.00;99.90;;;;;;6224137;28;20475;-59
2021/01/24 10:05:46;;;;;;;7.90;7.10;;;8.00;99.90;;;;;;6211836;28;20843;-59
2021/01/24 10:08:49;;;;;;;8.20;7.33;;;7.90;99.90;;;;;;6208826;28;20484;-58
2021/01/24 10:11:54;;;;;;;8.57;7.50;;;7.90;99.90;;;;;;6210769;28;20486;-58
2021/01/24 10:14:57;;;;;;;9.73;8.70;;;8.00;99.90;;;;;;6209960;28;20478;-58
2021/01/24 10:18:02;;;;;;;9.47;8.50;;;7.70;99.90;;;;;;6212050;28;20808;-59
2021/01/24 10:21:05;;;;;;;9.60;8.70;;;8.00;99.90;;;;;;6211475;28;21058;-59
2021/01/24 10:24:08;;;;;;;8.50;7.67;;;8.40;99.90;;;;;;6229678;28;20492;-59
2021/01/24 10:27:11;;;;;;;8.63;7.77;;;8.80;99.90;;;;;;6229432;28;20476;-58
2021/01/24 10:30:26;;;;;;;8.87;8.03;;;9.60;99.80;;;;;;6229887;28;20491;-59
2021/01/24 10:33:28;;;;;;;8.80;8.00;;;11.30;96.20;;;;;;6229709;28;20965;-58
2021/01/24 10:36:30;;;;;;;7.40;6.63;;;12.50;93.80;;;;;;6229434;28;20468;-59
2021/01/24 10:39:33;;;;;;;7.90;7.20;;;14.20;92.40;;;;;;6228939;28;20479;-60
2021/01/24 10:42:38;;;;;;;7.47;6.80;;;15.90;85.50;;;;;;6228920;28;20995;-59
2021/01/24 10:45:41;;;;;;;7.50;6.80;;;17.30;77.00;;;;;;6229208;28;20476;-61
2021/01/24 10:48:45;;;;;;;6.67;6.07;;;18.30;68.30;;;;;;6228829;28;20823;-61
2021/01/24 10:51:48;;;;;;;7.13;6.53;;;18.20;63.50;;;;;;6224614;28;20483;-59
2021/01/24 10:54:50;;;;;;;7.40;6.80;;;17.30;63.50;;;;;;6228589;28;20819;-59
2021/01/24 10:57:53;;;;;;;8.17;6.50;;;16.40;64.30;;;;;;6228796;28;20827;-59
2021/01/24 11:00:55;;;;;;;6.20;5.60;;;15.60;66.50;;;;;;6228289;28;20482;-58
2021/01/24 11:03:57;;;;;;;6.50;5.97;;;14.90;66.80;;;;;;6228673;28;20550;-59
2021/01/24 11:07:00;;;;;;;7.67;6.87;;;14.10;68.70;;;;;;6228192;28;20472;-58
2021/01/24 11:10:03;;;;;;;7.90;7.10;;;13.30;71.90;;;;;;6228280;28;20476;-58
2021/01/24 11:13:06;;;;;;;8.40;7.70;;;12.70;75.90;;;;;;6227723;28;20484;-59
2021/01/24 11:16:09;;;;;;;9.20;8.03;;;11.70;81.30;;;;;;6222228;28;20974;-58
2021/01/24 11:19:11;;;;;;;10.63;9.23;;;11.10;84.70;;;;;;6215138;28;20479;-59
2021/01/24 11:22:13;;;;;;;12.97;11.47;;;10.30;90.00;;;;;;6218635;28;20933;-59
2021/01/24 11:25:15;;;;;;;15.90;14.23;;;9.00;94.00;;;;;;6217236;28;20463;-59
2021/01/24 11:28:19;;;;;;;15.80;13.63;;;8.20;96.80;;;;;;6226405;28;20952;-59
2021/01/24 11:31:21;;;;;;;17.10;14.40;;;7.40;99.50;;;;;;6227103;28;20452;-60
2021/01/24 11:34:23;;;;;;;16.73;14.13;;;6.80;99.90;;;;;;6211678;28;20464;-59
2021/01/24 11:37:26;;;;;;;15.77;13.23;;;6.90;99.90;;;;;;6226802;28;20480;-59
2021/01/24 11:40:28;;;;;;;16.73;14.63;;;7.00;99.90;;;;;;6227031;28;20439;-58
2021/01/24 11:43:31;;;;;;;16.00;12.50;;;7.00;99.90;;;;;;6227007;28;20912;-59
2021/01/24 11:46:33;;;;;;;14.43;12.63;;;7.00;99.90;;;;;;6227159;28;20587;-59
2021/01/24 11:49:36;;;;;;;14.93;13.33;;;7.10;99.90;;;;;;6227318;28;20460;-58
2021/01/24 11:52:39;;;;;;;19.67;13.80;;;7.30;99.90;;;;;;6222182;28;20474;-58
2021/01/24 11:55:41;;;;;;;15.97;13.10;;;7.40;99.90;;;;;;6227029;28;20479;-59
2021/01/24 11:58:44;;;;;;;13.33;11.70;;;7.40;99.90;;;;;;6226607;28;20472;-61
2021/01/24 12:01:46;;;;;;;14.80;11.40;;;7.50;99.90;;;;;;6226409;28;20557;-58
2021/01/24 12:04:49;;;;;;;12.90;11.60;;;7.60;99.90;;;;;;6226543;28;20980;-59
2021/01/24 12:07:51;;;;;;;17.00;12.60;;;7.50;99.90;;;;;;6227030;28;20550;-59
2021/01/24 12:10:53;;;;;;;14.23;12.73;;;7.50;99.90;;;;;;6227131;28;20472;-60
2021/01/24 12:13:56;;;;;;;14.40;12.40;;;7.60;99.90;;;;;;6226925;28;20471;-60
2021/01/24 12:16:58;;;;;;;14.20;11.43;;;7.50;99.90;;;;;;6226846;28;20490;-60
2021/01/24 12:20:01;;;;;;;13.20;11.50;;;7.30;99.90;;;;;;6226965;28;20541;-59
2021/01/24 12:23:03;;;;;;;12.93;11.10;;;7.20;99.90;;;;;;6227002;28;20518;-57
2021/01/24 12:26:07;;;;;;;10.03;9.00;;;7.20;99.90;;;;;;6223761;28;20530;-60
2021/01/24 12:29:10;;;;;;;11.43;10.07;;;7.00;99.90;;;;;;6226659;28;20476;-59
2021/01/24 12:32:12;;;;;;;15.33;12.10;;;6.90;99.90;;;;;;6226462;28;20622;-58
2021/01/24 12:35:15;;;;;;;13.20;11.80;;;6.70;99.90;;;;;;6226635;28;20815;-58
2021/01/24 12:38:17;;;;;;;13.63;11.10;;;6.70;99.90;;;;;;6226433;28;20487;-59
2021/01/24 12:41:19;;;;;;;13.47;11.40;;;6.80;99.90;;;;;;6226970;28;20472;-58
2021/01/24 12:44:23;;;;;;;12.30;11.00;;;6.70;99.90;;;;;;6225758;28;20476;-58
2021/01/24 12:47:25;;;;;;;13.07;11.07;;;6.70;99.90;;;;;;6226290;28;20464;-59
2021/01/24 12:50:27;;;;;;;12.30;11.07;;;6.70;99.90;;;;;;6226415;28;20492;-57
2021/01/24 12:53:30;;;;;;;12.17;10.87;;;6.60;99.90;;;;;;6226019;28;20476;-58
2021/01/24 12:56:33;;;;;;;13.10;11.00;;;6.60;99.90;;;;;;6221547;28;20468;-58
2021/01/24 12:59:38;;;;;;;11.43;10.37;;;6.50;99.90;;;;;;6225756;28;20976;-58
2021/01/24 13:02:41;;;;;;;12.33;10.87;;;6.50;99.90;;;;;;6226091;28;20473;-57
2021/01/24 13:05:43;;;;;;;10.60;9.67;;;6.40;99.90;;;;;;6225911;28;20876;-58
2021/01/24 13:08:46;;;;;;;15.27;12.27;;;6.50;99.90;;;;;;6225503;28;20935;-59
2021/01/24 13:11:49;;;;;;;12.70;10.70;;;6.40;99.90;;;;;;6225916;28;20468;-58
2021/01/24 13:14:52;;;;;;;11.97;10.07;;;6.30;99.90;;;;;;6225455;28;20468;-58
2021/01/24 13:17:54;;;;;;;12.47;10.60;;;6.40;99.90;;;;;;6225657;28;20480;-56
2021/01/24 13:20:56;;;;;;;12.33;10.87;;;6.40;99.90;;;;;;6225458;28;20472;-57
2021/01/24 13:23:58;;;;;;;16.83;12.90;;;6.30;99.90;;;;;;6225264;28;20712;-58
2021/01/24 13:27:01;;;;;;;12.20;10.93;;;6.40;99.90;;;;;;6224808;28;20464;-58
2021/01/24 13:30:05;;;;;;;13.93;12.47;;;6.40;99.90;;;;;;6224785;28;20484;-59
2021/01/24 13:33:07;;;;;;;13.40;11.67;;;6.40;99.90;;;;;;6225014;28;20486;-58
2021/01/24 13:36:10;;;;;;;13.20;11.47;;;6.40;99.90;;;;;;6222847;28;20943;-59
2021/01/24 13:39:13;;;;;;;12.90;11.60;;;6.40;99.90;;;;;;6222617;28;20503;-58
2021/01/24 13:42:17;;;;;;;14.93;13.37;;;6.30;99.90;;;;;;6223157;28;20809;-58
2021/01/24 13:45:20;;;;;;;13.20;11.90;;;6.20;99.90;;;;;;6223016;28;20617;-59
2021/01/24 13:48:23;;;;;;;16.07;14.23;;;6.00;99.90;;;;;;6223935;28;20498;-58
2021/01/24 13:51:25;;;;;;;17.90;13.57;;;5.90;99.90;;;;;;6225030;28;20971;-58
2021/01/24 13:54:27;;;;;;;16.30;12.83;;;5.80;99.90;;;;;;6222456;28;20487;-59
2021/01/24 13:57:30;;;;;;;18.00;13.67;;;5.60;99.90;;;;;;6216425;28;20960;-58
2021/01/24 14:00:33;;;;;;;18.80;12.70;;;5.60;99.90;;;;;;6224700;28;20480;-58
2021/01/24 14:03:35;;;;;;;16.90;14.40;;;5.80;99.90;;;;;;6215599;28;20488;-58
2021/01/24 14:06:37;;;;;;;17.53;12.83;;;5.90;99.90;;;;;;6224572;28;20814;-58
2021/01/24 14:09:40;;;;;;;14.30;12.77;;;5.90;99.90;;;;;;6224743;28;20476;-57
2021/01/24 14:12:42;;;;;;;13.80;12.33;;;5.90;99.90;;;;;;6218516;28;20559;-59
2021/01/24 14:15:45;;;;;;;14.97;12.40;;;5.90;99.90;;;;;;6202850;28;20539;-57
2021/01/24 14:18:49;;;;;;;14.60;13.07;;;6.00;99.90;;;;;;6200026;28;20481;-57
2021/01/24 14:21:51;;;;;;;13.50;11.43;;;5.90;99.90;;;;;;6197823;28;20483;-58
2021/01/24 14:24:54;;;;;;;17.90;12.77;;;5.90;99.90;;;;;;6196338;28;20476;-58
2021/01/24 14:27:56;;;;;;;14.50;12.50;;;5.90;99.90;;;;;;6218169;28;20817;-57
2021/01/24 14:30:59;;;;;;;13.90;11.70;;;5.90;99.90;;;;;;6221340;28;20499;-58
2021/01/24 14:34:01;;;;;;;17.07;12.30;;;5.80;99.90;;;;;;6221390;28;20537;-59
2021/01/24 14:37:03;;;;;;;12.47;10.93;;;5.80;99.90;;;;;;6223144;28;20486;-59
2021/01/24 14:40:07;;;;;;;12.30;11.00;;;5.80;99.90;;;;;;6223752;28;20944;-58
2021/01/24 14:43:09;;;;;;;14.73;12.13;;;5.70;99.90;;;;;;6224379;28;20867;-58
2021/01/24 14:46:13;;;;;;;13.23;10.00;;;5.70;99.90;;;;;;6224138;28;21002;-57
2021/01/24 14:49:18;;;;;;;12.47;9.40;;;5.60;99.90;;;;;;6224365;28;20598;-59
2021/01/24 14:52:20;;;;;;;14.07;11.50;;;5.50;99.90;;;;;;6224379;28;20458;-59
2021/01/24 14:55:22;;;;;;;13.43;11.37;;;5.40;99.90;;;;;;6224566;28;20459;-59
2021/01/24 14:58:25;;;;;;;15.40;10.70;;;5.40;99.90;;;;;;6224272;28;20488;-61
2021/01/24 15:01:28;;;;;;;13.73;10.77;;;5.40;99.90;;;;;;6224497;28;20452;-59
2021/01/24 15:04:30;;;;;;;16.20;12.77;;;5.40;99.90;;;;;;6215260;28;20539;-60
2021/01/24 15:07:33;;;;;;;14.03;10.97;;;5.30;99.90;;;;;;6227867;28;20459;-59
2021/01/24 15:10:35;;;;;;;14.17;10.60;;;5.30;99.90;;;;;;6228933;28;20448;-60
2021/01/24 15:13:37;;;;;;;14.60;10.03;;;5.30;99.90;;;;;;6228731;28;20464;-60
2021/01/24 15:16:41;;;;;;;12.70;9.30;;;5.40;99.90;;;;;;6228743;28;20456;-59
2021/01/24 15:19:43;;;;;;;10.10;8.83;;;5.50;99.90;;;;;;6228355;28;20988;-59
2021/01/24 15:22:46;;;;;;;13.00;9.87;;;5.40;99.90;;;;;;6227685;28;21014;-63
2021/01/24 15:25:48;;;;;;;12.43;10.40;;;5.40;99.90;;;;;;6227024;28;20470;-62
2021/01/24 15:28:51;;;;;;;13.60;10.27;;;5.40;99.90;;;;;;6227846;28;20479;-64
2021/01/24 15:31:54;;;;;;;16.10;9.20;;;5.40;99.90;;;;;;6228281;28;20495;-61
2021/01/24 15:34:56;;;;;;;17.10;10.77;;;5.40;99.90;;;;;;6236863;28;20759;-60
2021/01/24 15:37:59;;;;;;;11.83;9.13;;;5.50;99.90;;;;;;6224326;28;20460;-60
2021/01/24 15:41:01;;;;;;;9.67;7.80;;;5.50;99.90;;;;;;6213885;28;20476;-62
2021/01/24 15:44:04;;;;;;;11.50;7.87;;;5.60;99.90;;;;;;6225568;28;20598;-59
2021/01/24 15:47:08;;;;;;;11.60;9.50;;;5.60;99.90;;;;;;6227532;28;20485;-58
2021/01/24 15:50:11;;;;;;;10.90;9.70;;;5.60;99.90;;;;;;6219729;28;20468;-60
2021/01/24 15:53:13;;;;;;;11.03;9.87;;;5.60;99.90;;;;;;6215531;28;20615;-58
2021/01/24 15:56:16;;;;;;;15.73;9.07;;;5.60;99.90;;;;;;6214180;28;20475;-59